Time;durP1;ratioP1;P1;durP2;ratioP2;P2;SDS_P1;SDS_P2;PMS_P1;PMS_P2;Temp;Humidity;BMP_temperature;BMP_pressure;BME280_temperature;BME280_humidity;BME280_pressure;Samples;Min_cycle;Max_cycle;Signal;HPM_P1;HPM_P2
2024/02/29 00:00:06;;;;;;;22.33;18.00;;;;;;;5.08;100.00;101831.38;7742921;22;20228;-69
2024/02/29 00:03:28;;;;;;;27.10;20.40;;;;;;;5.03;100.00;101836.94;7739355;22;20210;-69
2024/02/29 00:06:49;;;;;;;28.67;20.77;;;;;;;5.02;100.00;101829.88;7738602;22;20218;-69
2024/02/29 00:10:10;;;;;;;28.37;20.83;;;;;;;4.94;100.00;101826.72;7735421;22;20248;-68
2024/02/29 00:13:31;;;;;;;25.67;20.93;;;;;;;4.82;100.00;101825.53;7744297;22;20223;-69
2024/02/29 00:16:53;;;;;;;29.83;21.83;;;;;;;4.85;100.00;101828.06;7733886;22;20215;-69
2024/02/29 00:20:14;;;;;;;29.63;20.47;;;;;;;4.73;100.00;101812.66;7733241;22;20683;-68
2024/02/29 00:23:35;;;;;;;28.43;21.93;;;;;;;4.83;100.00;101813.03;7738396;22;20214;-69
2024/02/29 00:26:55;;;;;;;25.73;20.80;;;;;;;4.85;100.00;101806.69;7739419;22;20211;-69
2024/02/29 00:30:17;;;;;;;26.83;19.40;;;;;;;4.72;100.00;101804.69;7738157;22;20557;-69
2024/02/29 00:33:40;;;;;;;28.80;21.53;;;;;;;4.70;100.00;101798.56;7741305;22;20215;-69
2024/02/29 00:37:01;;;;;;;30.23;21.87;;;;;;;4.85;100.00;101790.66;7736747;22;20207;-69
2024/02/29 00:40:22;;;;;;;28.80;20.30;;;;;;;4.76;100.00;101784.91;7734744;22;20203;-70
2024/02/29 00:43:43;;;;;;;26.53;19.37;;;;;;;4.70;100.00;101779.88;7743057;22;20207;-69
2024/02/29 00:47:04;;;;;;;25.10;20.20;;;;;;;4.81;100.00;101777.53;7737352;22;20215;-69
2024/02/29 00:50:26;;;;;;;24.17;21.30;;;;;;;4.78;100.00;101775.00;7741742;22;20674;-69
2024/02/29 00:53:47;;;;;;;27.53;20.17;;;;;;;4.75;100.00;101768.03;7750016;22;20594;-71
2024/02/29 00:57:08;;;;;;;24.00;21.10;;;;;;;4.86;100.00;101763.00;7735378;22;20436;-70
2024/02/29 01:00:29;;;;;;;25.33;21.30;;;;;;;4.82;100.00;101766.75;7731435;22;20215;-68
2024/02/29 01:03:50;;;;;;;28.40;19.77;;;;;;;4.72;100.00;101754.81;7740415;22;20230;-68
2024/02/29 01:07:12;;;;;;;25.77;21.63;;;;;;;4.66;100.00;101762.28;7737944;22;20206;-68
2024/02/29 01:10:34;;;;;;;28.10;21.73;;;;;;;4.64;100.00;101757.00;7736350;22;20802;-69
2024/02/29 01:13:54;;;;;;;25.30;20.13;;;;;;;4.60;100.00;101755.44;7740366;22;20219;-68
2024/02/29 01:17:15;;;;;;;29.83;20.50;;;;;;;4.70;100.00;101743.34;7722757;22;20203;-69
2024/02/29 01:20:36;;;;;;;31.67;23.23;;;;;;;4.79;100.00;101740.22;7735272;22;20211;-69
2024/02/29 01:23:58;;;;;;;31.20;23.60;;;;;;;4.93;100.00;101749.31;7738974;22;20609;-69
2024/02/29 01:27:19;;;;;;;28.20;22.13;;;;;;;4.79;100.00;101744.69;7736105;22;20214;-69
2024/02/29 01:30:40;;;;;;;28.63;23.27;;;;;;;4.63;100.00;101736.56;7731931;22;20241;-69
2024/02/29 01:34:01;;;;;;;28.60;19.73;;;;;;;4.73;100.00;101723.66;7741297;22;20577;-69
2024/02/29 01:37:22;;;;;;;28.97;22.63;;;;;;;4.84;100.00;101714.13;7736821;22;20218;-68
2024/02/29 01:40:46;;;;;;;31.43;23.77;;;;;;;4.67;100.00;101714.13;7731719;22;20211;-69
2024/02/29 01:44:07;;;;;;;27.20;22.93;;;;;;;4.75;100.00;101711.06;7740912;22;20215;-69
2024/02/29 01:47:27;;;;;;;29.73;20.50;;;;;;;4.64;100.00;101700.94;7733061;22;20214;-69
2024/02/29 01:50:48;;;;;;;23.60;19.53;;;;;;;4.71;100.00;101693.47;7738444;22;20221;-69
2024/02/29 01:54:09;;;;;;;26.53;21.60;;;;;;;4.76;100.00;101697.63;7765881;22;20214;-69
2024/02/29 01:57:32;;;;;;;29.63;22.63;;;;;;;4.89;100.00;101721.91;7733520;22;20206;-69
2024/02/29 02:00:53;;;;;;;28.70;23.10;;;;;;;4.79;100.00;101710.84;7733875;22;20215;-69
2024/02/29 02:04:14;;;;;;;29.63;21.60;;;;;;;4.83;100.00;101701.72;7725261;22;20211;-69
2024/02/29 02:07:36;;;;;;;28.87;21.20;;;;;;;4.90;100.00;101702.28;7734697;22;20589;-68
2024/02/29 02:10:57;;;;;;;26.63;21.40;;;;;;;4.68;100.00;101694.50;7734059;22;21452;-69
2024/02/29 02:14:19;;;;;;;27.07;21.70;;;;;;;4.68;100.00;101691.81;7741325;22;20215;-69
2024/02/29 02:17:42;;;;;;;27.10;21.27;;;;;;;4.48;100.00;101678.66;7724772;22;20552;-69
2024/02/29 02:21:05;;;;;;;28.47;23.40;;;;;;;4.50;100.00;101667.88;7731473;22;20455;-68
2024/02/29 02:24:26;;;;;;;30.50;20.87;;;;;;;4.62;100.00;101673.47;7741239;22;20894;-68
2024/02/29 02:27:47;;;;;;;28.33;22.40;;;;;;;4.63;100.00;101655.63;7735067;22;20558;-69
2024/02/29 02:31:08;;;;;;;29.20;21.70;;;;;;;4.66;100.00;101655.47;7732754;22;20210;-69
2024/02/29 02:34:29;;;;;;;24.23;20.03;;;;;;;4.36;100.00;101649.88;7740033;22;20219;-69
2024/02/29 02:37:51;;;;;;;21.13;17.73;;;;;;;4.30;100.00;101638.69;7736392;22;20211;-69
2024/02/29 02:41:12;;;;;;;30.33;21.77;;;;;;;4.30;100.00;101639.53;7737185;22;20211;-69
2024/02/29 02:44:33;;;;;;;31.70;23.10;;;;;;;4.32;100.00;101632.31;7738505;22;20322;-69
2024/02/29 02:47:54;;;;;;;22.50;19.10;;;;;;;4.37;100.00;101624.06;7733852;22;20215;-69
2024/02/29 02:51:15;;;;;;;27.17;22.30;;;;;;;4.33;100.00;101628.69;7710595;22;20211;-69
2024/02/29 02:54:37;;;;;;;29.17;22.53;;;;;;;4.29;100.00;101627.13;7737093;22;20211;-69
2024/02/29 02:57:59;;;;;;;24.50;20.37;;;;;;;4.34;100.00;101622.41;7734060;22;20203;-69
2024/02/29 03:01:20;;;;;;;26.60;19.03;;;;;;;4.26;100.00;101611.28;7731007;22;20207;-68
2024/02/29 03:04:41;;;;;;;29.17;21.73;;;;;;;4.37;100.00;101606.25;7741174;22;20321;-69
2024/02/29 03:08:03;;;;;;;29.30;21.20;;;;;;;4.19;100.00;101609.00;7737813;22;20235;-69
2024/02/29 03:11:25;;;;;;;25.27;19.67;;;;;;;4.07;100.00;101605.13;7738212;22;20517;-68
2024/02/29 03:14:46;;;;;;;28.03;22.77;;;;;;;4.04;100.00;101583.97;7737445;22;20298;-68
2024/02/29 03:18:08;;;;;;;30.17;21.87;;;;;;;3.89;100.00;101590.94;7736426;22;20236;-67
2024/02/29 03:21:29;;;;;;;26.87;20.07;;;;;;;3.88;100.00;101580.34;7733059;22;20203;-69
2024/02/29 03:24:51;;;;;;;30.43;22.67;;;;;;;3.84;100.00;101584.06;7739017;22;20215;-69
2024/02/29 03:28:13;;;;;;;25.83;21.07;;;;;;;3.71;100.00;101574.97;7741757;22;20215;-68
2024/02/29 03:31:34;;;;;;;23.20;18.63;;;;;;;3.83;100.00;101574.38;7777740;22;20490;-68
2024/02/29 03:34:55;;;;;;;28.07;22.70;;;;;;;3.62;100.00;101564.75;7740674;22;20523;-68
2024/02/29 03:38:17;;;;;;;27.17;22.37;;;;;;;3.70;100.00;101566.09;7741013;22;20511;-68
2024/02/29 03:41:37;;;;;;;26.60;23.00;;;;;;;3.64;100.00;101565.53;7735420;22;20286;-69
2024/02/29 03:44:59;;;;;;;27.00;19.93;;;;;;;3.54;100.00;101572.28;7741067;22;20218;-69
2024/02/29 03:48:21;;;;;;;25.17;18.93;;;;;;;3.57;100.00;101559.66;7740683;22;20214;-69
2024/02/29 03:51:42;;;;;;;23.70;20.43;;;;;;;3.62;100.00;101551.44;7736348;22;20210;-68
2024/02/29 03:55:03;;;;;;;26.10;19.33;;;;;;;3.60;100.00;101542.66;7742530;22;20219;-68
2024/02/29 03:58:24;;;;;;;26.37;21.33;;;;;;;3.66;100.00;101545.00;7744078;22;20214;-69
2024/02/29 04:01:49;;;;;;;24.27;20.00;;;;;;;3.71;100.00;101535.00;7736302;22;20571;-68
2024/02/29 04:05:10;;;;;;;22.27;19.90;;;;;;;3.55;100.00;101537.53;7738292;22;20294;-68
2024/02/29 04:08:31;;;;;;;29.10;22.90;;;;;;;3.41;100.00;101540.03;7742522;22;20215;-68
2024/02/29 04:11:52;;;;;;;24.73;19.73;;;;;;;3.41;100.00;101534.69;7738263;22;20298;-69
2024/02/29 04:15:13;;;;;;;27.93;23.00;;;;;;;3.36;100.00;101528.72;7733806;22;20215;-68
2024/02/29 04:18:35;;;;;;;25.97;20.33;;;;;;;3.42;100.00;101527.56;7740985;22;20215;-68
2024/02/29 04:21:56;;;;;;;25.93;20.10;;;;;;;3.33;100.00;101533.34;7734415;22;20298;-69
2024/02/29 04:25:22;;;;;;;29.37;20.90;;;;;;;3.35;100.00;101521.69;7736331;22;20207;-68
2024/02/29 04:28:43;;;;;;;24.00;20.60;;;;;;;3.38;100.00;101513.50;7729720;22;20215;-69
2024/02/29 04:32:04;;;;;;;27.23;20.37;;;;;;;3.27;100.00;101510.53;7730024;22;20223;-67
2024/02/29 04:35:27;;;;;;;25.70;19.33;;;;;;;3.16;100.00;101497.72;7738238;22;20980;-68
2024/02/29 04:38:49;;;;;;;24.20;19.50;;;;;;;3.28;100.00;101498.91;7742814;22;20219;-69
2024/02/29 04:42:10;;;;;;;27.20;20.93;;;;;;;3.27;100.00;101494.53;7736460;22;20215;-68
2024/02/29 04:45:31;;;;;;;23.67;19.17;;;;;;;3.30;100.00;101505.03;7733690;22;20207;-68
2024/02/29 04:48:52;;;;;;;25.17;19.17;;;;;;;3.34;100.00;101490.63;7740834;22;20215;-68
2024/02/29 04:52:14;;;;;;;30.70;22.50;;;;;;;3.35;100.00;101492.38;7724966;22;20625;-67
2024/02/29 04:55:35;;;;;;;23.30;20.03;;;;;;;3.15;100.00;101488.00;7730966;22;20211;-68
2024/02/29 04:58:56;;;;;;;31.83;20.67;;;;;;;3.27;100.00;101496.34;7743786;22;20561;-68
2024/02/29 05:02:17;;;;;;;30.97;21.53;;;;;;;3.13;100.00;101487.22;7730416;22;20215;-67
2024/02/29 05:05:38;;;;;;;23.97;18.83;;;;;;;3.36;100.00;101471.91;7731939;22;20560;-68
2024/02/29 05:09:00;;;;;;;28.67;21.50;;;;;;;3.22;100.00;101469.91;7742597;22;20211;-69
2024/02/29 05:12:22;;;;;;;24.90;20.80;;;;;;;3.11;100.00;101473.09;7733551;22;20549;-68
2024/02/29 05:15:43;;;;;;;28.40;24.60;;;;;;;3.15;100.00;101469.34;7725697;22;20599;-67
2024/02/29 05:19:04;;;;;;;26.20;20.57;;;;;;;3.14;100.00;101472.97;7744555;22;20210;-68
2024/02/29 05:22:26;;;;;;;24.13;19.47;;;;;;;3.19;100.00;101476.25;7743072;22;20219;-68
2024/02/29 05:25:48;;;;;;;29.37;21.33;;;;;;;3.18;100.00;101466.56;7738552;22;20222;-68
2024/02/29 05:29:09;;;;;;;30.63;26.07;;;;;;;3.15;100.00;101463.19;7743521;22;20211;-69
2024/02/29 05:32:31;;;;;;;24.83;18.40;;;;;;;3.08;100.00;101457.28;7729923;22;20782;-69
2024/02/29 05:35:52;;;;;;;24.60;18.13;;;;;;;2.97;100.00;101456.94;7733060;22;20222;-69
2024/02/29 05:39:12;;;;;;;25.60;19.40;;;;;;;3.13;100.00;101452.59;7723748;22;20215;-69
2024/02/29 05:42:34;;;;;;;27.30;21.33;;;;;;;3.28;100.00;101447.44;7728256;22;20210;-69
2024/02/29 05:45:55;;;;;;;24.23;18.57;;;;;;;3.15;100.00;101445.38;7733083;22;20215;-69
2024/02/29 05:49:16;;;;;;;27.40;19.33;;;;;;;3.09;100.00;101448.34;7740848;22;20289;-68
2024/02/29 05:52:37;;;;;;;20.33;18.10;;;;;;;3.07;100.00;101442.22;7735014;22;20214;-68
2024/02/29 05:55:58;;;;;;;26.00;19.77;;;;;;;2.95;100.00;101433.97;7728302;22;20222;-69
2024/02/29 05:59:21;;;;;;;21.60;17.73;;;;;;;2.94;100.00;101434.94;7741089;22;20449;-69
2024/02/29 06:02:43;;;;;;;20.33;17.60;;;;;;;3.10;100.00;101433.25;7721783;22;20549;-69
2024/02/29 06:06:04;;;;;;;22.73;18.50;;;;;;;3.14;100.00;101441.00;7730876;22;20615;-68
2024/02/29 06:09:29;;;;;;;30.87;17.90;;;;;;;3.05;100.00;101430.78;7740951;22;20550;-68
2024/02/29 06:12:50;;;;;;;21.27;15.57;;;;;;;3.12;100.00;101432.22;7731017;22;20207;-68
2024/02/29 06:16:13;;;;;;;25.60;17.73;;;;;;;3.08;100.00;101424.47;7730124;22;20297;-68
2024/02/29 06:19:38;;;;;;;24.70;16.37;;;;;;;3.26;100.00;101418.22;7736076;22;20453;-68
2024/02/29 06:22:59;;;;;;;19.30;16.57;;;;;;;3.21;100.00;101430.91;7732029;22;20207;-67
2024/02/29 06:26:20;;;;;;;24.13;20.70;;;;;;;3.26;100.00;101428.88;7729564;22;20845;-67
2024/02/29 06:29:41;;;;;;;20.23;15.63;;;;;;;3.41;100.00;101422.78;7740560;22;20219;-67
2024/02/29 06:33:03;;;;;;;20.00;17.50;;;;;;;3.39;100.00;101413.13;7728776;22;20211;-66
2024/02/29 06:36:24;;;;;;;22.03;18.00;;;;;;;3.54;100.00;101420.34;7730678;22;20215;-66
2024/02/29 06:39:46;;;;;;;19.87;16.63;;;;;;;3.54;100.00;101421.22;7712406;22;20207;-66
2024/02/29 06:43:07;;;;;;;19.60;16.03;;;;;;;3.78;100.00;101432.41;7734807;22;20207;-66
2024/02/29 06:46:28;;;;;;;23.10;16.67;;;;;;;3.61;100.00;101435.09;7728645;22;20261;-67
2024/02/29 06:49:50;;;;;;;22.03;18.33;;;;;;;3.76;100.00;101435.16;7740855;22;20290;-69
2024/02/29 06:53:11;;;;;;;24.43;14.93;;;;;;;3.83;100.00;101425.03;7717830;22;20207;-66
2024/02/29 06:56:32;;;;;;;22.40;19.03;;;;;;;3.94;100.00;101420.03;7737670;22;20297;-67
2024/02/29 06:59:53;;;;;;;20.97;16.40;;;;;;;3.96;100.00;101418.13;7738667;22;20219;-69
2024/02/29 07:03:14;;;;;;;19.90;16.47;;;;;;;3.95;100.00;101405.72;7732278;22;20856;-67
2024/02/29 07:06:36;;;;;;;17.07;14.67;;;;;;;4.15;100.00;101410.00;7730346;22;20298;-67
2024/02/29 07:09:57;;;;;;;21.90;18.07;;;;;;;4.20;100.00;101394.59;7740076;22;20219;-69
2024/02/29 07:13:18;;;;;;;16.13;14.43;;;;;;;4.38;100.00;101389.13;7738016;22;20569;-67
2024/02/29 07:16:39;;;;;;;20.67;15.03;;;;;;;4.33;100.00;101382.31;7730532;22;20219;-67
2024/02/29 07:20:00;;;;;;;18.93;16.83;;;;;;;4.44;100.00;101385.25;7735578;22;20215;-69
2024/02/29 07:23:23;;;;;;;19.87;16.77;;;;;;;4.47;100.00;101374.41;7737717;22;20215;-69
2024/02/29 07:26:45;;;;;;;18.43;15.23;;;;;;;4.55;100.00;101378.38;7718453;22;20532;-67
2024/02/29 07:30:08;;;;;;;17.03;15.03;;;;;;;4.77;100.00;101378.03;7733832;22;20207;-66
2024/02/29 07:33:31;;;;;;;21.30;16.67;;;;;;;4.90;100.00;101370.19;7737219;22;20215;-67
2024/02/29 07:36:52;;;;;;;13.77;11.43;;;;;;;5.56;100.00;101376.91;7723948;22;20219;-67
2024/02/29 07:40:15;;;;;;;14.80;9.87;;;;;;;6.52;100.00;101375.34;7712488;22;20561;-68
2024/02/29 07:43:35;;;;;;;19.07;16.17;;;;;;;7.00;100.00;101365.94;7738638;22;20287;-69
2024/02/29 07:46:56;;;;;;;16.40;14.23;;;;;;;5.93;100.00;101367.53;7734301;22;20215;-69
2024/02/29 07:50:18;;;;;;;22.17;15.27;;;;;;;5.50;100.00;101374.59;7736600;22;20589;-69
2024/02/29 07:53:38;;;;;;;19.10;14.10;;;;;;;5.66;100.00;101362.03;7743096;22;20579;-67
2024/02/29 07:57:01;;;;;;;16.83;14.17;;;;;;;5.67;100.00;101350.38;7733739;22;20938;-66
2024/02/29 08:00:22;;;;;;;17.40;15.10;;;;;;;5.54;100.00;101349.41;7735529;22;20605;-66
2024/02/29 08:03:42;;;;;;;15.27;13.70;;;;;;;5.47;100.00;101359.59;7720751;22;20215;-66
2024/02/29 08:07:04;;;;;;;16.13;14.43;;;;;;;5.90;100.00;101349.88;7735158;22;20214;-68
2024/02/29 08:10:25;;;;;;;14.67;12.60;;;;;;;5.86;100.00;101350.16;7737994;22;20261;-67
2024/02/29 08:13:48;;;;;;;17.60;13.57;;;;;;;5.96;100.00;101348.63;7741361;22;20219;-66
2024/02/29 08:17:09;;;;;;;16.70;13.37;;;;;;;6.26;100.00;101336.84;7731456;22;20250;-68
2024/02/29 08:20:30;;;;;;;14.63;13.03;;;;;;;6.20;100.00;101333.69;7737293;22;20203;-68
2024/02/29 08:23:51;;;;;;;14.00;12.50;;;;;;;6.37;100.00;101334.34;7744705;22;20226;-67
2024/02/29 08:27:12;;;;;;;13.73;11.73;;;;;;;6.58;100.00;101334.78;7734310;22;20535;-68
2024/02/29 08:30:34;;;;;;;23.93;12.90;;;;;;;6.51;100.00;101327.25;7730324;22;20324;-68
2024/02/29 08:33:56;;;;;;;18.73;14.30;;;;;;;6.79;100.00;101316.44;7736650;22;20550;-68
2024/02/29 08:37:17;;;;;;;12.23;10.70;;;;;;;6.56;100.00;101317.06;7733257;22;20215;-68
2024/02/29 08:40:38;;;;;;;14.37;11.53;;;;;;;6.65;100.00;101321.84;7735858;22;20207;-68
2024/02/29 08:43:59;;;;;;;13.03;10.63;;;;;;;6.90;100.00;101311.22;7739012;22;20211;-68
2024/02/29 08:47:21;;;;;;;15.50;12.43;;;;;;;7.17;100.00;101306.69;7721319;22;20315;-68
2024/02/29 08:50:42;;;;;;;14.03;11.20;;;;;;;7.25;100.00;101313.25;7736845;22;20219;-68
2024/02/29 08:54:04;;;;;;;15.47;12.60;;;;;;;7.37;100.00;101298.13;7743044;22;20210;-67
2024/02/29 08:57:25;;;;;;;12.70;10.50;;;;;;;7.32;100.00;101304.78;7737885;22;20211;-69
2024/02/29 09:00:46;;;;;;;11.60;10.40;;;;;;;7.54;100.00;101303.19;7734795;22;20604;-67
2024/02/29 09:04:08;;;;;;;13.07;10.67;;;;;;;7.78;100.00;101297.97;7737547;22;20210;-67
2024/02/29 09:07:29;;;;;;;11.63;10.43;;;;;;;7.98;100.00;101300.94;7739207;22;20252;-68
2024/02/29 09:10:50;;;;;;;18.90;11.37;;;;;;;7.69;100.00;101296.78;7733921;22;20219;-67
2024/02/29 09:14:11;;;;;;;14.17;11.03;;;;;;;7.77;100.00;101293.53;7740152;22;20581;-68
2024/02/29 09:17:32;;;;;;;11.27;9.90;;;;;;;7.93;100.00;101286.09;7736222;22;20210;-68
2024/02/29 09:20:54;;;;;;;12.60;9.17;;;;;;;8.14;100.00;101279.19;7732039;22;20211;-68
2024/02/29 09:24:15;;;;;;;11.57;9.87;;;;;;;8.43;100.00;101277.09;7735660;22;20461;-67
2024/02/29 09:27:36;;;;;;;16.57;10.63;;;;;;;8.85;100.00;101272.09;7737794;22;20215;-67
2024/02/29 09:30:57;;;;;;;12.77;9.17;;;;;;;8.74;100.00;101257.78;7734655;22;20293;-67
2024/02/29 09:34:18;;;;;;;10.63;9.30;;;;;;;8.66;100.00;101261.00;7741153;22;20570;-68
2024/02/29 09:37:40;;;;;;;10.57;9.53;;;;;;;9.17;100.00;101255.34;7735666;22;20585;-67
2024/02/29 09:41:01;;;;;;;7.67;6.77;;;;;;;8.79;100.00;101252.88;7731924;22;20215;-67
2024/02/29 09:44:22;;;;;;;9.10;8.17;;;;;;;9.25;100.00;101244.84;7743546;22;20228;-68
2024/02/29 09:47:43;;;;;;;9.90;7.40;;;;;;;9.76;100.00;101239.91;7737379;22;20214;-68
2024/02/29 09:51:06;;;;;;;13.40;8.20;;;;;;;10.05;100.00;101235.75;7736744;22;20207;-67
2024/02/29 09:54:30;;;;;;;9.10;7.27;;;;;;;10.02;100.00;101226.06;7742878;22;20609;-67
2024/02/29 09:57:52;;;;;;;7.17;6.53;;;;;;;10.00;100.00;101221.78;7729284;22;20219;-67
2024/02/29 10:01:13;;;;;;;10.67;8.43;;;;;;;10.90;100.00;101211.50;7732015;22;20206;-67
2024/02/29 10:04:33;;;;;;;7.13;6.43;;;;;;;12.57;97.71;101206.47;7739045;22;20207;-67
2024/02/29 10:07:54;;;;;;;11.63;6.73;;;;;;;12.98;91.68;101204.44;7727255;22;20219;-68
2024/02/29 10:11:16;;;;;;;10.60;7.23;;;;;;;13.51;87.53;101208.41;7736028;22;20452;-68
2024/02/29 10:14:37;;;;;;;8.03;5.93;;;;;;;13.03;81.83;101213.88;7742930;22;20506;-68
2024/02/29 10:17:59;;;;;;;7.47;5.63;;;;;;;14.29;78.45;101208.78;7723451;22;20581;-68
2024/02/29 10:21:19;;;;;;;6.97;5.97;;;;;;;13.41;76.15;101215.69;7725241;22;20207;-68
2024/02/29 10:24:41;;;;;;;6.77;5.27;;;;;;;13.26;76.56;101214.44;7738178;22;20215;-67
2024/02/29 10:28:03;;;;;;;7.03;4.83;;;;;;;14.48;73.27;101207.81;7730385;22;20211;-68
2024/02/29 10:31:27;;;;;;;6.67;5.47;;;;;;;14.04;70.54;101197.78;7735857;22;20207;-68
2024/02/29 10:34:47;;;;;;;7.30;5.37;;;;;;;15.35;68.12;101197.06;7739301;22;20215;-68
2024/02/29 10:38:09;;;;;;;6.57;4.67;;;;;;;15.40;65.11;101187.41;7734489;22;22422;-67
2024/02/29 10:41:32;;;;;;;9.60;5.83;;;;;;;16.19;60.64;101185.31;7733273;22;20337;-68
2024/02/29 10:44:56;;;;;;;6.25;5.53;;;;;;;17.01;57.67;101189.91;7738395;22;20218;-67
2024/02/29 10:48:23;;;;;;;9.10;4.85;;;;;;;17.24;54.72;101188.22;7737453;22;20215;-68
2024/02/29 10:51:47;;;;;;;5.40;4.82;;;;;;;19.32;51.42;101182.78;7732531;22;20219;-70
2024/02/29 10:55:12;;;;;;;7.38;5.88;;;;;;;19.17;46.81;101171.81;7731480;22;20214;-68
2024/02/29 10:58:42;;;;;;;5.25;4.25;;;;;;;20.76;45.11;101162.88;7736274;22;20209;-68
2024/02/29 11:02:05;;;;;;;6.28;4.93;;;;;;;21.68;42.30;101178.28;7760824;22;20553;-68
2024/02/29 11:05:26;;;;;;;6.72;4.82;;;;;;;21.19;41.28;101172.84;7732718;22;20215;-68
2024/02/29 11:08:48;;;;;;;5.40;4.70;;;;;;;20.08;40.89;101165.22;7767730;22;20210;-67
2024/02/29 11:12:11;;;;;;;7.05;4.05;;;;;;;22.83;37.94;101157.25;7734628;22;20273;-69
2024/02/29 11:15:32;;;;;;;5.13;4.00;;;;;;;20.50;39.58;101179.06;7727886;22;20220;-67
2024/02/29 11:19:02;;;;;;;7.97;5.25;;;;;;;18.53;42.45;101155.06;7739161;22;20211;-68
2024/02/29 11:22:31;;;;;;;5.50;4.78;;;;;;;19.14;42.80;101144.00;7732406;22;20207;-67
2024/02/29 11:25:53;;;;;;;4.78;4.10;;;;;;;22.47;38.26;101131.97;7736052;22;20231;-70
2024/02/29 11:29:15;;;;;;;4.07;3.70;;;;;;;19.44;38.40;101142.19;7746849;22;20558;-67
2024/02/29 11:32:36;;;;;;;6.18;4.63;;;;;;;18.18;42.12;101137.34;7733751;22;20293;-67
2024/02/29 11:36:00;;;;;;;4.72;4.20;;;;;;;19.96;41.38;101131.16;7735152;22;20215;-67
2024/02/29 11:39:22;;;;;;;3.72;3.35;;;;;;;18.61;41.60;101125.00;7742789;22;20203;-68
2024/02/29 11:42:44;;;;;;;4.25;3.40;;;;;;;20.73;38.63;101118.59;7732629;22;20226;-68
2024/02/29 11:46:09;;;;;;;5.78;3.92;;;;;;;19.06;40.65;101114.88;7733555;22;20227;-67
2024/02/29 11:49:30;;;;;;;3.80;3.45;;;;;;;21.06;38.94;101101.44;7742221;22;20302;-69
2024/02/29 11:52:56;;;;;;;4.32;3.47;;;;;;;20.78;39.18;101103.25;7735305;22;20211;-67
2024/02/29 11:56:17;;;;;;;4.60;3.17;;;;;;;19.51;39.81;101105.69;7732988;22;20211;-69
2024/02/29 11:59:39;;;;;;;4.30;3.28;;;;;;;20.04;39.01;101104.53;7743881;22;20223;-69
2024/02/29 12:02:59;;;;;;;5.57;3.50;;;;;;;21.00;37.38;101093.09;7731854;22;20448;-68
2024/02/29 12:06:20;;;;;;;7.43;4.57;;;;;;;19.77;39.47;101081.47;7728854;22;20289;-68
2024/02/29 12:09:43;;;;;;;4.25;3.85;;;;;;;20.01;39.08;101082.16;7740739;22;20223;-68
2024/02/29 12:13:04;;;;;;;4.05;3.60;;;;;;;20.89;38.66;101077.19;7740513;22;20211;-67
2024/02/29 12:16:26;;;;;;;4.10;2.88;;;;;;;20.96;36.81;101078.09;7736660;22;20327;-66
2024/02/29 12:19:47;;;;;;;5.53;3.40;;;;;;;18.50;41.36;101073.53;7744495;22;20215;-69
2024/02/29 12:23:13;;;;;;;4.38;3.45;;;;;;;20.52;40.28;101064.66;7736450;22;20500;-68
2024/02/29 12:26:37;;;;;;;4.30;3.35;;;;;;;17.14;44.21;101067.66;7732136;22;20568;-67
2024/02/29 12:29:58;;;;;;;3.03;2.67;;;;;;;18.82;43.11;101060.44;7743496;22;20207;-68
2024/02/29 12:33:19;;;;;;;5.38;3.45;;;;;;;18.25;42.80;101059.19;7736060;22;20218;-68
2024/02/29 12:36:41;;;;;;;5.55;3.88;;;;;;;17.10;44.32;101056.28;7738207;22;20215;-68
2024/02/29 12:40:04;;;;;;;5.45;3.55;;;;;;;18.02;44.05;101045.47;7742515;22;20283;-68
2024/02/29 12:43:26;;;;;;;4.68;4.10;;;;;;;18.33;44.93;101038.13;7737245;22;20847;-68
2024/02/29 12:46:52;;;;;;;5.45;3.47;;;;;;;18.97;43.24;101038.59;7731732;22;20544;-67
2024/02/29 12:50:13;;;;;;;3.83;3.53;;;;;;;21.99;37.19;101026.81;7735603;22;20207;-67
2024/02/29 12:53:34;;;;;;;3.55;3.13;;;;;;;22.40;36.14;101012.97;7738166;22;20207;-67
2024/02/29 12:56:55;;;;;;;3.58;2.95;;;;;;;20.04;38.47;101025.16;7739325;22;20215;-67
2024/02/29 13:00:22;;;;;;;3.33;3.03;;;;;;;19.96;40.16;101017.06;7735485;22;20259;-67
2024/02/29 13:03:43;;;;;;;3.38;3.08;;;;;;;17.82;43.45;101052.44;7737994;22;20255;-67
2024/02/29 13:07:04;;;;;;;14.88;4.03;;;;;;;18.03;45.63;101016.31;7734605;22;20257;-68
2024/02/29 13:10:26;;;;;;;6.22;3.47;;;;;;;18.67;43.83;101021.28;7737897;22;20211;-67
2024/02/29 13:13:46;;;;;;;3.55;3.25;;;;;;;17.95;46.13;101010.94;7741176;22;20211;-69
2024/02/29 13:17:09;;;;;;;4.43;2.55;;;;;;;18.21;45.97;101005.97;7733095;22;20219;-68
2024/02/29 13:20:30;;;;;;;5.55;3.80;;;;;;;16.73;47.31;101012.41;7734894;22;20202;-68
2024/02/29 13:23:51;;;;;;;3.95;3.55;;;;;;;17.37;49.30;100995.03;7737974;22;20657;-69
2024/02/29 13:27:12;;;;;;;3.13;2.83;;;;;;;17.51;49.72;100991.59;7737378;22;20211;-68
2024/02/29 13:30:33;;;;;;;4.68;3.10;;;;;;;16.96;49.35;101012.56;7737874;22;20565;-68
2024/02/29 13:33:55;;;;;;;4.30;2.88;;;;;;;17.60;48.49;100976.03;7734914;22;20215;-67
2024/02/29 13:37:16;;;;;;;4.32;2.97;;;;;;;17.73;48.82;100970.84;7733147;22;20215;-68
2024/02/29 13:40:37;;;;;;;4.45;3.13;;;;;;;18.80;44.67;100969.63;7736556;22;20522;-68
2024/02/29 13:43:58;;;;;;;5.72;3.75;;;;;;;19.54;43.55;100971.31;7739618;22;20310;-68
2024/02/29 13:47:19;;;;;;;3.85;3.42;;;;;;;19.32;41.95;100964.03;7731072;22;20203;-67
2024/02/29 13:50:42;;;;;;;7.15;3.28;;;;;;;18.00;45.14;100970.31;7737098;22;20328;-68
2024/02/29 13:54:05;;;;;;;3.65;2.85;;;;;;;19.48;42.46;100965.75;7738965;22;20211;-67
2024/02/29 13:57:25;;;;;;;4.03;2.95;;;;;;;18.01;45.20;100961.94;7732840;22;20215;-68
2024/02/29 14:00:46;;;;;;;4.45;3.33;;;;;;;18.46;45.84;100954.78;7737100;22;20454;-68
2024/02/29 14:04:08;;;;;;;4.97;3.75;;;;;;;18.28;46.96;100950.47;7739723;22;20211;-68
2024/02/29 14:07:32;;;;;;;4.90;4.50;;;;;;;18.62;46.67;100941.81;7732713;22;20230;-69
2024/02/29 14:10:53;;;;;;;5.25;3.22;;;;;;;19.46;45.24;100937.75;7733292;22;20215;-68
2024/02/29 14:14:14;;;;;;;3.67;3.33;;;;;;;17.84;46.59;100941.28;7724757;22;20447;-68
2024/02/29 14:17:36;;;;;;;4.50;3.88;;;;;;;17.86;49.04;100931.03;7735145;22;20219;-68
2024/02/29 14:20:57;;;;;;;6.20;3.60;;;;;;;17.75;48.02;100933.34;7732691;22;20207;-68
2024/02/29 14:24:20;;;;;;;4.30;3.90;;;;;;;17.21;51.08;100924.25;7729959;22;20218;-67
2024/02/29 14:27:41;;;;;;;3.80;3.40;;;;;;;17.24;50.60;100915.72;7733879;22;20223;-70
2024/02/29 14:31:03;;;;;;;5.07;3.57;;;;;;;16.23;54.28;100921.97;7733283;22;20207;-68
2024/02/29 14:34:23;;;;;;;4.10;3.27;;;;;;;16.63;54.25;100911.88;7726425;22;20230;-69
2024/02/29 14:37:44;;;;;;;5.33;3.30;;;;;;;16.83;53.05;100912.34;7737299;22;20298;-68
2024/02/29 14:41:06;;;;;;;4.03;3.57;;;;;;;16.71;53.23;100900.09;7738021;22;20215;-68
2024/02/29 14:44:27;;;;;;;4.73;4.20;;;;;;;17.65;52.42;100897.28;7737606;22;20215;-68
2024/02/29 14:47:48;;;;;;;5.07;4.50;;;;;;;16.59;54.27;100896.91;7733160;22;20215;-68
2024/02/29 14:51:09;;;;;;;5.13;3.83;;;;;;;17.91;51.24;100884.97;7732875;22;20215;-67
2024/02/29 14:54:31;;;;;;;4.27;3.87;;;;;;;18.74;49.11;100882.94;7742502;22;20211;-69
2024/02/29 14:57:55;;;;;;;4.27;3.23;;;;;;;16.49;53.20;100879.03;7736111;22;20222;-67
2024/02/29 15:01:18;;;;;;;3.90;3.50;;;;;;;17.10;53.17;100878.34;7734002;22;20211;-67
2024/02/29 15:04:39;;;;;;;4.37;3.43;;;;;;;16.99;53.06;100876.00;7740831;22;20249;-68
2024/02/29 15:08:00;;;;;;;4.10;3.70;;;;;;;17.02;54.52;100871.03;7735468;22;20203;-68
2024/02/29 15:11:22;;;;;;;7.03;3.10;;;;;;;16.58;56.62;100865.25;7732931;22;20214;-68
2024/02/29 15:14:44;;;;;;;5.20;3.70;;;;;;;16.17;56.83;100870.94;7741764;22;20210;-69
2024/02/29 15:18:05;;;;;;;3.43;3.13;;;;;;;16.07;56.48;100870.28;7731791;22;20215;-69
2024/02/29 15:21:26;;;;;;;4.00;3.63;;;;;;;16.00;57.05;100870.09;7737010;22;20573;-68